Time;durP1;ratioP1;P1;durP2;ratioP2;P2;SDS_P1;SDS_P2;PMS_P1;PMS_P2;Temp;Humidity;BMP_temperature;BMP_pressure;BME280_temperature;BME280_humidity;BME280_pressure;Samples;Min_cycle;Max_cycle;Signal;HPM_P1;HPM_P2
2022/02/10 00:05:48;;;;;;;;;49.75;38.25;;;;;;;;5058858;28;46305;-83
2022/02/10 00:13:57;;;;;;;;;49.75;42.00;;;;;;;;5042411;28;45394;-84
2022/02/10 00:21:47;;;;;;;;;47.50;37.50;;;;;;;;4976049;28;45381;-83
2022/02/10 00:35:54;;;;;;;;;45.75;39.50;;;;;;;;4976498;28;45467;-83
2022/02/10 00:37:59;;;;;;;;;55.25;40.75;;;;;;;;4976103;28;45485;-83
2022/02/10 00:40:33;;;;;;;;;58.50;43.00;;;;;;;;4980483;28;46315;-84
2022/02/10 00:43:00;;;;;;;;;40.25;37.50;;;;;;;;4977353;28;45456;-83
2022/02/10 00:45:27;;;;;;;;;42.75;39.75;;;;;;;;4982083;28;45693;-84
2022/02/10 00:47:59;;;;;;;;;49.50;40.00;;;;;;;;4978525;28;45588;-83
2022/02/10 00:50:25;;;;;;;;;46.50;39.00;;;;;;;;4978792;28;46265;-83
2022/02/10 00:52:57;;;;;;;;;46.75;40.75;;;;;;;;4976062;28;45306;-83
2022/02/10 00:55:27;;;;;;;;;48.75;38.00;;;;;;;;4976909;28;45295;-81
2022/02/10 00:57:52;;;;;;;;;36.00;35.50;;;;;;;;4993549;28;45492;-82
2022/02/10 01:00:47;;;;;;;;;57.00;43.25;;;;;;;;5056866;28;45416;-82
2022/02/10 01:29:33;;;;;;;;;45.75;38.25;;;;;;;;4995185;28;45507;-84
2022/02/10 01:30:05;;;;;;;;;44.00;37.50;;;;;;;;4994439;28;45441;-82
2022/02/10 01:32:30;;;;;;;;;45.00;38.75;;;;;;;;4994929;28;45483;-82
2022/02/10 01:34:55;;;;;;;;;41.75;38.00;;;;;;;;4994393;28;45326;-82
2022/02/10 01:37:21;;;;;;;;;46.00;37.25;;;;;;;;4994515;28;45542;-83
2022/02/10 01:39:51;;;;;;;;;40.50;33.50;;;;;;;;4993733;28;45583;-82
2022/02/10 02:04:08;;;;;;;;;37.00;31.25;;;;;;;;5052213;28;45896;-80
2022/02/10 02:06:42;;;;;;;;;38.50;32.50;;;;;;;;5055860;28;45526;-80
2022/02/10 02:09:12;;;;;;;;;32.00;28.00;;;;;;;;5057913;28;45382;-80
2022/02/10 02:11:39;;;;;;;;;40.50;35.00;;;;;;;;5062700;27;45230;-79
2022/02/10 02:14:05;;;;;;;;;47.50;34.25;;;;;;;;5061849;28;46387;-80
2022/02/10 02:16:30;;;;;;;;;20.50;17.00;;;;;;;;5062640;28;45542;-81
2022/02/10 02:18:55;;;;;;;;;30.00;28.75;;;;;;;;5062559;28;45379;-78
2022/02/10 02:21:22;;;;;;;;;35.25;30.75;;;;;;;;5062559;28;45563;-78
2022/02/10 02:23:47;;;;;;;;;33.50;30.50;;;;;;;;5062396;27;46349;-78
2022/02/10 02:26:17;;;;;;;;;30.75;29.75;;;;;;;;5062299;28;45326;-78
2022/02/10 02:28:46;;;;;;;;;34.00;29.00;;;;;;;;5062615;28;45448;-78
2022/02/10 02:31:18;;;;;;;;;36.75;28.25;;;;;;;;5061654;28;45325;-78
2022/02/10 02:34:08;;;;;;;;;28.00;24.50;;;;;;;;5059476;28;46087;-78
2022/02/10 03:06:25;;;;;;;;;33.75;29.00;;;;;;;;5060189;28;45320;-78
2022/02/10 03:08:55;;;;;;;;;28.00;27.50;;;;;;;;5061845;28;45510;-78
2022/02/10 03:11:20;;;;;;;;;30.25;28.50;;;;;;;;5062212;28;45407;-79
2022/02/10 03:13:54;;;;;;;;;41.50;32.75;;;;;;;;5061058;28;45372;-78
2022/02/10 04:14:53;;;;;;;;;39.75;31.75;;;;;;;;5057494;28;45609;-79
2022/02/10 04:22:36;;;;;;;;;36.50;32.75;;;;;;;;5057266;28;45411;-78
2022/02/10 04:26:03;;;;;;;;;31.50;25.75;;;;;;;;5052903;28;45367;-79
2022/02/10 04:58:10;;;;;;;;;34.75;27.25;;;;;;;;5054119;28;45271;-78
2022/02/10 05:03:24;;;;;;;;;32.25;27.50;;;;;;;;5056540;28;45309;-77
2022/02/10 05:06:12;;;;;;;;;30.50;29.00;;;;;;;;5056412;28;45422;-78
2022/02/10 05:14:55;;;;;;;;;38.00;28.50;;;;;;;;5042032;28;45893;-79
2022/02/10 05:19:32;;;;;;;;;31.50;27.75;;;;;;;;5012734;28;45457;-79
2022/02/10 05:32:40;;;;;;;;;33.75;28.00;;;;;;;;5012304;28;45691;-80
2022/02/10 05:35:20;;;;;;;;;28.00;24.00;;;;;;;;5012039;28;46403;-79
2022/02/10 05:37:51;;;;;;;;;32.25;28.25;;;;;;;;5012094;28;45436;-79
2022/02/10 05:40:27;;;;;;;;;32.00;26.75;;;;;;;;5012019;28;45607;-78
2022/02/10 05:49:39;;;;;;;;;32.50;27.00;;;;;;;;4933892;28;45232;-79
2022/02/10 05:57:09;;;;;;;;;30.50;25.50;;;;;;;;4949867;28;45602;-80
2022/02/10 06:49:33;;;;;;;;;22.25;18.75;;;;;;;;5055863;27;45444;-84
2022/02/10 07:05:15;;;;;;;;;30.00;25.00;;;;;;;;5063486;28;45333;-80
2022/02/10 07:12:46;;;;;;;;;42.00;33.50;;;;;;;;5056978;28;45601;-77
2022/02/10 07:15:32;;;;;;;;;38.00;32.50;;;;;;;;5057237;28;45378;-77
2022/02/10 07:48:07;;;;;;;;;33.25;27.50;;;;;;;;5057619;28;45579;-81
2022/02/10 09:03:37;;;;;;;;;29.75;26.25;;;;;;;;5058421;28;45338;-80
2022/02/10 10:01:39;;;;;;;;;37.25;30.75;;;;;;;;5055820;28;45482;-81
2022/02/10 10:04:15;;;;;;;;;30.25;27.75;;;;;;;;5051664;28;47165;-80
2022/02/10 10:06:52;;;;;;;;;38.00;32.50;;;;;;;;5056423;28;45247;-81
2022/02/10 10:12:23;;;;;;;;;28.50;26.50;;;;;;;;5055252;28;45274;-81
2022/02/10 10:15:00;;;;;;;;;41.50;33.00;;;;;;;;5053876;28;45499;-81
2022/02/10 10:17:54;;;;;;;;;32.75;27.75;;;;;;;;5055135;28;45434;-79
2022/02/10 10:20:40;;;;;;;;;37.00;31.00;;;;;;;;5055040;28;45375;-81
2022/02/10 10:23:23;;;;;;;;;37.00;31.50;;;;;;;;5056457;28;45502;-79
2022/02/10 10:46:07;;;;;;;;;29.25;27.50;;;;;;;;5058539;28;45348;-81
2022/02/10 10:53:17;;;;;;;;;27.75;24.50;;;;;;;;5057460;28;45443;-80
2022/02/10 10:58:14;;;;;;;;;35.50;32.25;;;;;;;;5056877;28;45996;-80
2022/02/10 11:03:43;;;;;;;;;28.25;25.75;;;;;;;;5057222;28;45419;-79
2022/02/10 11:23:33;;;;;;;;;21.75;19.25;;;;;;;;5058092;28;45590;-80
2022/02/10 11:42:47;;;;;;;;;22.25;21.25;;;;;;;;5056104;28;45212;-80
2022/02/10 12:30:30;;;;;;;;;15.25;11.00;;;;;;;;5055681;28;45475;-81
2022/02/10 12:43:40;;;;;;;;;11.25;11.25;;;;;;;;5054906;28;45345;-80
2022/02/10 14:09:53;;;;;;;;;18.50;14.00;;;;;;;;5055926;28;45510;-80
2022/02/10 14:17:08;;;;;;;;;9.50;8.75;;;;;;;;5058318;27;45350;-81
2022/02/10 14:19:46;;;;;;;;;15.75;11.00;;;;;;;;5056093;28;45618;-81
2022/02/10 14:22:26;;;;;;;;;13.00;9.50;;;;;;;;5055454;28;45364;-81
2022/02/10 14:27:36;;;;;;;;;14.00;12.00;;;;;;;;5058362;28;45190;-85
2022/02/10 14:30:02;;;;;;;;;17.00;13.75;;;;;;;;5059366;28;45625;-84
2022/02/10 14:32:32;;;;;;;;;15.75;14.00;;;;;;;;5059115;28;45453;-79
2022/02/10 14:35:08;;;;;;;;;17.25;13.00;;;;;;;;5056096;28;45528;-81
2022/02/10 14:40:11;;;;;;;;;13.50;12.25;;;;;;;;5057431;28;45383;-82
2022/02/10 15:13:24;;;;;;;;;21.00;18.25;;;;;;;;5055425;28;45403;-81
2022/02/10 15:21:22;;;;;;;;;23.50;22.00;;;;;;;;5058831;28;45725;-81
2022/02/10 15:53:27;;;;;;;;;25.25;19.75;;;;;;;;5057951;28;45466;-83
2022/02/10 16:17:12;;;;;;;;;29.00;22.75;;;;;;;;5068380;28;45280;-80
2022/02/10 16:19:38;;;;;;;;;28.50;26.00;;;;;;;;5067361;28;45327;-79
2022/02/10 16:24:48;;;;;;;;;24.00;22.00;;;;;;;;5058386;27;46120;-79
2022/02/10 16:27:26;;;;;;;;;25.75;20.50;;;;;;;;5057733;28;45593;-79
2022/02/10 16:29:57;;;;;;;;;21.25;21.00;;;;;;;;5058893;28;45404;-80
2022/02/10 16:32:22;;;;;;;;;23.00;23.00;;;;;;;;5056549;28;45435;-80
2022/02/10 16:34:47;;;;;;;;;22.50;19.75;;;;;;;;5055949;28;46051;-80
2022/02/10 16:37:13;;;;;;;;;24.50;24.00;;;;;;;;5055772;28;45365;-79
2022/02/10 16:39:39;;;;;;;;;31.00;26.75;;;;;;;;5055925;28;45502;-80
2022/02/10 16:42:05;;;;;;;;;31.00;27.50;;;;;;;;5056239;28;45547;-79
2022/02/10 16:44:30;;;;;;;;;37.00;32.00;;;;;;;;5056721;28;46822;-79
2022/02/10 16:46:56;;;;;;;;;23.75;21.25;;;;;;;;5055863;28;45394;-79
2022/02/10 16:49:23;;;;;;;;;25.00;23.25;;;;;;;;5056719;28;45559;-80
2022/02/10 16:51:48;;;;;;;;;25.75;22.00;;;;;;;;5056247;28;45241;-80
2022/02/10 16:54:30;;;;;;;;;27.00;24.00;;;;;;;;5057193;28;45471;-78
2022/02/10 16:57:03;;;;;;;;;23.75;22.50;;;;;;;;5057195;28;47743;-79
2022/02/10 17:02:33;;;;;;;;;24.75;23.25;;;;;;;;5054866;28;45363;-80
2022/02/10 17:25:07;;;;;;;;;26.25;25.00;;;;;;;;4993404;28;45596;-80
2022/02/10 17:29:07;;;;;;;;;10.75;10.75;;;;;;;;4992563;28;45461;-79
2022/02/10 17:34:49;;;;;;;;;12.25;9.75;;;;;;;;4992259;28;45824;-80
2022/02/10 17:53:21;;;;;;;;;3.75;3.00;;;;;;;;5007659;28;45715;-80
2022/02/10 17:55:47;;;;;;;;;5.00;5.00;;;;;;;;5010816;28;45456;-80
2022/02/10 17:58:12;;;;;;;;;8.75;8.75;;;;;;;;5008571;28;45547;-80
2022/02/10 18:00:37;;;;;;;;;12.00;10.00;;;;;;;;5007531;28;45579;-79
2022/02/10 18:03:03;;;;;;;;;12.25;12.25;;;;;;;;5013447;28;45519;-80
2022/02/10 18:08:16;;;;;;;;;12.00;9.00;;;;;;;;5007408;28;45849;-79
2022/02/10 18:13:27;;;;;;;;;6.50;6.50;;;;;;;;5052775;28;45232;-80
2022/02/10 18:15:57;;;;;;;;;6.00;6.00;;;;;;;;5052458;28;45399;-80
2022/02/10 18:18:38;;;;;;;;;4.75;4.75;;;;;;;;5054087;28;45513;-79
2022/02/10 18:26:32;;;;;;;;;12.50;9.00;;;;;;;;5057513;28;45269;-80
2022/02/10 18:29:04;;;;;;;;;8.25;7.50;;;;;;;;5056416;28;47045;-80
2022/02/10 19:11:21;;;;;;;;;4.75;4.00;;;;;;;;4958031;28;45435;-79
2022/02/10 19:13:48;;;;;;;;;2.25;2.25;;;;;;;;4974335;28;45496;-80
2022/02/10 19:16:13;;;;;;;;;6.00;6.00;;;;;;;;4975168;28;45361;-81
2022/02/10 19:18:39;;;;;;;;;5.00;4.00;;;;;;;;4956810;28;45477;-78
2022/02/10 19:21:04;;;;;;;;;2.75;2.75;;;;;;;;4971853;28;46177;-78
2022/02/10 19:23:29;;;;;;;;;7.00;6.50;;;;;;;;4975510;28;46364;-78
2022/02/10 19:25:54;;;;;;;;;4.00;4.00;;;;;;;;4975547;28;45411;-78
2022/02/10 19:28:19;;;;;;;;;4.00;3.00;;;;;;;;4975325;28;45355;-79
2022/02/10 19:30:48;;;;;;;;;5.00;5.00;;;;;;;;4977170;28;47477;-78
2022/02/10 19:33:15;;;;;;;;;5.50;5.50;;;;;;;;4975202;28;45378;-78
2022/02/10 19:35:46;;;;;;;;;4.00;4.00;;;;;;;;4975258;28;45460;-77
2022/02/10 19:38:17;;;;;;;;;4.25;3.00;;;;;;;;4974903;28;45292;-78
2022/02/10 19:40:43;;;;;;;;;5.50;5.50;;;;;;;;4974940;28;46235;-79
2022/02/10 19:43:10;;;;;;;;;6.00;5.00;;;;;;;;5009513;28;45374;-78
2022/02/10 19:45:35;;;;;;;;;6.75;6.75;;;;;;;;5055920;28;45557;-78
2022/02/10 19:48:01;;;;;;;;;9.75;8.25;;;;;;;;5055766;28;45305;-77
2022/02/10 19:50:28;;;;;;;;;6.25;6.25;;;;;;;;5055784;28;46012;-78
2022/02/10 19:52:57;;;;;;;;;6.75;5.25;;;;;;;;5056367;28;45495;-78
2022/02/10 19:55:24;;;;;;;;;5.75;5.75;;;;;;;;5055924;28;45506;-76
2022/02/10 19:57:52;;;;;;;;;4.00;4.00;;;;;;;;5057286;28;45494;-76
2022/02/10 20:00:20;;;;;;;;;4.25;4.25;;;;;;;;5057593;28;46493;-75
2022/02/10 20:02:46;;;;;;;;;5.00;5.00;;;;;;;;5056247;28;45367;-77
2022/02/10 20:05:11;;;;;;;;;11.00;9.00;;;;;;;;5057465;27;45510;-73
2022/02/10 20:07:38;;;;;;;;;6.75;5.75;;;;;;;;5057640;28;45422;-75
2022/02/10 20:10:07;;;;;;;;;6.25;6.25;;;;;;;;5056542;28;46627;-75
2022/02/10 20:12:33;;;;;;;;;10.25;9.00;;;;;;;;5056575;28;45391;-75
2022/02/10 20:14:58;;;;;;;;;8.00;6.50;;;;;;;;5056965;28;45487;-75
2022/02/10 20:17:23;;;;;;;;;7.75;7.00;;;;;;;;5057388;28;45720;-75
2022/02/10 20:19:49;;;;;;;;;5.00;5.00;;;;;;;;5057577;28;46206;-73
2022/02/10 20:22:15;;;;;;;;;8.75;6.25;;;;;;;;5057151;28;45344;-74
2022/02/10 20:24:40;;;;;;;;;7.75;6.75;;;;;;;;5056827;28;45465;-74
2022/02/10 20:27:06;;;;;;;;;8.25;8.25;;;;;;;;5057390;28;45518;-74
2022/02/10 20:29:31;;;;;;;;;9.50;6.25;;;;;;;;5057367;28;46249;-75
2022/02/10 20:31:56;;;;;;;;;6.75;5.25;;;;;;;;5057503;28;45551;-74
2022/02/10 20:34:23;;;;;;;;;8.75;8.75;;;;;;;;5057170;27;45334;-74
2022/02/10 20:36:48;;;;;;;;;7.00;7.00;;;;;;;;5056395;28;45318;-74
2022/02/10 20:39:20;;;;;;;;;5.00;5.00;;;;;;;;5056352;28;45925;-75
2022/02/10 20:41:50;;;;;;;;;12.00;6.50;;;;;;;;5056607;28;45487;-76
2022/02/10 20:44:15;;;;;;;;;6.00;6.00;;;;;;;;5057372;28;45493;-75
2022/02/10 20:46:42;;;;;;;;;10.00;7.00;;;;;;;;5057546;28;45450;-75
2022/02/10 20:49:15;;;;;;;;;7.25;7.25;;;;;;;;5056310;28;47307;-75
2022/02/10 20:51:40;;;;;;;;;7.00;6.00;;;;;;;;5040614;28;45721;-75
2022/02/10 20:54:06;;;;;;;;;8.25;7.00;;;;;;;;5057164;28;45433;-75
2022/02/10 20:56:31;;;;;;;;;8.00;7.00;;;;;;;;5039142;28;45557;-74
2022/02/10 20:58:59;;;;;;;;;6.75;5.50;;;;;;;;5056472;28;46188;-75
2022/02/10 21:01:24;;;;;;;;;11.25;8.00;;;;;;;;5056751;28;45494;-75
2022/02/10 21:03:50;;;;;;;;;9.75;7.00;;;;;;;;5056072;28;45368;-74
2022/02/10 21:09:09;;;;;;;;;5.50;5.50;;;;;;;;5055964;28;45851;-75
2022/02/10 21:11:34;;;;;;;;;12.50;11.50;;;;;;;;5056583;28;45526;-75
2022/02/10 21:14:00;;;;;;;;;8.25;7.00;;;;;;;;5057761;28;45304;-75
2022/02/10 21:16:26;;;;;;;;;8.75;7.75;;;;;;;;5056896;28;45418;-75
2022/02/10 21:18:52;;;;;;;;;5.00;5.00;;;;;;;;5055512;28;46204;-75
2022/02/10 21:21:18;;;;;;;;;4.50;4.00;;;;;;;;5056185;28;45382;-74
2022/02/10 21:26:11;;;;;;;;;11.00;8.00;;;;;;;;5056395;28;45531;-76
2022/02/10 21:28:39;;;;;;;;;10.50;7.75;;;;;;;;5057900;28;45343;-75
2022/02/10 21:31:06;;;;;;;;;9.00;7.25;;;;;;;;5055564;28;45558;-74
2022/02/10 21:38:46;;;;;;;;;11.00;9.50;;;;;;;;5057771;28;46167;-75
2022/02/10 22:10:27;;;;;;;;;7.00;6.00;;;;;;;;5051594;28;45424;-76
2022/02/10 22:18:35;;;;;;;;;19.50;19.50;;;;;;;;5055487;27;45376;-75
2022/02/10 22:21:03;;;;;;;;;22.75;21.50;;;;;;;;5055593;28;47057;-76
2022/02/10 22:23:29;;;;;;;;;6.00;5.00;;;;;;;;5055831;28;45299;-73
2022/02/10 22:26:00;;;;;;;;;24.75;21.00;;;;;;;;5056357;28;45449;-73
2022/02/10 22:28:34;;;;;;;;;19.50;12.25;;;;;;;;5059306;28;45600;-75
2022/02/10 22:34:46;;;;;;;;;8.25;7.50;;;;;;;;5060045;28;45339;-77
2022/02/10 22:36:41;;;;;;;;;10.75;8.75;;;;;;;;5031801;28;45505;-77
2022/02/10 22:39:06;;;;;;;;;10.50;10.50;;;;;;;;5042075;28;45535;-77
2022/02/10 22:41:32;;;;;;;;;10.00;9.00;;;;;;;;5061391;27;47505;-77
2022/02/10 22:43:58;;;;;;;;;8.25;7.25;;;;;;;;5059242;28;47715;-77
2022/02/10 22:46:23;;;;;;;;;8.25;6.00;;;;;;;;5059144;27;45388;-77
2022/02/10 22:48:49;;;;;;;;;9.75;7.00;;;;;;;;5039862;28;45456;-77
2022/02/10 22:51:16;;;;;;;;;7.50;7.50;;;;;;;;5058734;28;45943;-76
2022/02/10 22:53:42;;;;;;;;;8.75;7.00;;;;;;;;5059040;27;45301;-77
2022/02/10 22:56:08;;;;;;;;;10.25;8.00;;;;;;;;5059251;28;45484;-77
2022/02/10 22:58:34;;;;;;;;;12.00;10.25;;;;;;;;5044407;28;45383;-77
2022/02/10 23:01:00;;;;;;;;;7.50;6.50;;;;;;;;5058103;28;47309;-77
2022/02/10 23:03:28;;;;;;;;;9.50;8.00;;;;;;;;5060115;28;45435;-77
2022/02/10 23:05:54;;;;;;;;;8.00;6.75;;;;;;;;5059122;28;45506;-76
2022/02/10 23:08:20;;;;;;;;;8.25;7.00;;;;;;;;5059066;28;45452;-75
2022/02/10 23:10:49;;;;;;;;;11.00;10.75;;;;;;;;5059008;27;47053;-76
2022/02/10 23:13:27;;;;;;;;;11.50;9.00;;;;;;;;5057781;28;45364;-77
2022/02/10 23:15:53;;;;;;;;;11.00;11.00;;;;;;;;5057133;28;45478;-77
2022/02/10 23:18:23;;;;;;;;;13.75;10.00;;;;;;;;5042191;28;45351;-78
2022/02/10 23:20:49;;;;;;;;;13.25;12.00;;;;;;;;5060103;28;47213;-77
2022/02/10 23:23:15;;;;;;;;;11.00;11.00;;;;;;;;5058551;27;45386;-75
2022/02/10 23:25:43;;;;;;;;;9.75;9.00;;;;;;;;5058563;28;45587;-77
2022/02/10 23:28:12;;;;;;;;;10.50;10.50;;;;;;;;5057920;28;45217;-77
2022/02/10 23:30:38;;;;;;;;;12.00;11.00;;;;;;;;5058702;28;45411;-77
2022/02/10 23:33:13;;;;;;;;;14.50;13.00;;;;;;;;5057844;28;45451;-75
2022/02/10 23:38:27;;;;;;;;;16.00;12.25;;;;;;;;5059143;28;45398;-76
2022/02/10 23:43:18;;;;;;;;;11.75;8.75;;;;;;;;5058221;28;47874;-76
2022/02/10 23:45:44;;;;;;;;;14.50;13.25;;;;;;;;5056976;28;45468;-76
2022/02/10 23:48:09;;;;;;;;;11.50;11.50;;;;;;;;5057903;28;45410;-76
2022/02/10 23:50:36;;;;;;;;;17.50;16.00;;;;;;;;5057972;28;47161;-76
2022/02/10 23:53:01;;;;;;;;;15.50;14.50;;;;;;;;5058194;28;45418;-75
2022/02/10 23:55:32;;;;;;;;;14.00;12.75;;;;;;;;5058446;28;45263;-77
2022/02/10 23:58:10;;;;;;;;;18.75;16.00;;;;;;;;5057823;28;45604;-78
